createdAt,value
2023-05-25T00:01:35.478Z,34.25
2023-05-25T00:04:05.090Z,34.67
2023-05-25T00:06:32.665Z,33.50
2023-05-25T00:08:59.107Z,32.25
2023-05-25T00:11:26.798Z,38.75
2023-05-25T00:13:53.730Z,40.67
2023-05-25T00:16:20.668Z,36.00
2023-05-25T00:18:48.811Z,33.67
2023-05-25T00:21:16.270Z,37.33
2023-05-25T00:23:42.982Z,27.75
2023-05-25T00:26:09.621Z,35.00
2023-05-25T00:28:36.242Z,33.67
2023-05-25T00:31:02.733Z,38.50
2023-05-25T00:33:29.407Z,43.33
2023-05-25T00:35:57.256Z,30.00
2023-05-25T00:38:23.905Z,39.75
2023-05-25T00:40:54.839Z,34.33
2023-05-25T00:43:21.344Z,33.00
2023-05-25T00:45:48.252Z,38.00
2023-05-25T00:48:15.613Z,39.33
2023-05-25T00:50:43.180Z,39.67
2023-05-25T00:53:11.114Z,34.33
2023-05-25T00:55:57.811Z,40.67
2023-05-25T00:58:27.105Z,28.00
2023-05-25T01:00:56.385Z,38.75
2023-05-25T01:03:27.859Z,31.25
2023-05-25T01:05:55.187Z,38.00
2023-05-25T01:08:22.778Z,37.00
2023-05-25T01:10:50.237Z,38.00
2023-05-25T01:13:18.122Z,39.00
2023-05-25T01:15:45.401Z,27.25
2023-05-25T01:18:15.226Z,35.50
2023-05-25T01:21:13.279Z,39.25
2023-05-25T01:23:47.190Z,31.50
2023-05-25T01:26:15.758Z,33.33
2023-05-25T01:28:46.584Z,38.00
2023-05-25T01:31:14.799Z,37.25
2023-05-25T01:33:42.698Z,32.00
2023-05-25T01:36:09.334Z,43.25
2023-05-25T01:38:37.191Z,40.00
2023-05-25T01:41:03.780Z,32.25
2023-05-25T01:43:30.342Z,28.75
2023-05-25T01:46:03.046Z,34.75
2023-05-25T01:48:49.806Z,38.25
2023-05-25T01:51:19.217Z,36.00
2023-05-25T01:53:48.906Z,34.75
2023-05-25T01:56:16.326Z,38.00
2023-05-25T01:58:43.908Z,32.50
2023-05-25T02:01:10.753Z,36.67
2023-05-25T02:03:41.240Z,38.00
2023-05-25T02:06:08.274Z,36.25
2023-05-25T02:08:34.723Z,36.00
2023-05-25T02:11:01.173Z,39.00
2023-05-25T02:13:27.742Z,37.67
2023-05-25T02:15:54.286Z,38.00
2023-05-25T02:18:21.112Z,33.00
2023-05-25T02:20:47.946Z,39.00
2023-05-25T02:23:14.799Z,34.00
2023-05-25T02:25:43.036Z,37.50
2023-05-25T02:28:09.710Z,35.25
2023-05-25T02:30:36.439Z,38.50
2023-05-25T02:33:04.000Z,36.33
2023-05-25T02:35:30.725Z,38.25
2023-05-25T02:37:57.228Z,34.75
2023-05-25T02:40:24.010Z,27.25
2023-05-25T02:42:50.685Z,29.75
2023-05-25T02:45:17.255Z,33.50
2023-05-25T02:47:43.792Z,29.00
2023-05-25T02:50:10.938Z,29.00
2023-05-25T02:52:37.413Z,27.75
2023-05-25T02:55:04.065Z,33.25
2023-05-25T02:57:30.565Z,31.33
2023-05-25T02:59:57.062Z,36.50
2023-05-25T03:02:25.621Z,35.50
2023-05-25T03:04:53.966Z,39.00
2023-05-25T03:07:25.580Z,34.00
2023-05-25T03:09:52.327Z,39.00
2023-05-25T03:12:21.780Z,29.00
2023-05-25T03:14:48.262Z,41.75
2023-05-25T03:17:14.744Z,33.25
2023-05-25T03:19:41.298Z,34.25
2023-05-25T03:22:07.721Z,36.00
2023-05-25T03:24:34.182Z,37.00
2023-05-25T03:27:00.785Z,25.67
2023-05-25T03:29:27.376Z,35.33
2023-05-25T03:31:53.926Z,29.00
2023-05-25T03:34:20.413Z,30.25
2023-05-25T03:36:47.703Z,31.67
2023-05-25T03:39:14.247Z,27.25
2023-05-25T03:41:40.925Z,34.50
2023-05-25T03:44:07.709Z,26.25
2023-05-25T03:46:34.381Z,31.75
2023-05-25T03:49:00.908Z,33.50
2023-05-25T03:51:28.222Z,28.75
2023-05-25T03:53:54.750Z,33.25
2023-05-25T03:56:21.553Z,27.75
2023-05-25T03:58:48.096Z,33.25
2023-05-25T04:01:14.796Z,37.75
2023-05-25T04:03:41.501Z,30.00
2023-05-25T04:06:08.853Z,32.00
2023-05-25T04:08:35.307Z,36.75
2023-05-25T04:11:02.261Z,34.00
2023-05-25T04:13:28.779Z,28.00
2023-05-25T04:15:55.523Z,28.50
2023-05-25T04:18:22.070Z,28.75
2023-05-25T04:20:48.558Z,23.25
2023-05-25T04:23:15.035Z,28.75
2023-05-25T04:25:42.439Z,31.75
2023-05-25T04:28:09.097Z,29.25
2023-05-25T04:30:36.256Z,32.00
2023-05-25T04:33:03.217Z,33.00
2023-05-25T04:35:31.997Z,36.75
2023-05-25T04:38:00.716Z,28.00
2023-05-25T04:40:28.175Z,24.50
2023-05-25T04:42:55.902Z,28.00
2023-05-25T04:45:23.999Z,27.25
2023-05-25T04:47:50.821Z,27.75
2023-05-25T04:50:17.293Z,29.25
2023-05-25T04:52:43.809Z,29.00
2023-05-25T04:55:10.377Z,26.25
2023-05-25T04:57:36.927Z,31.00
2023-05-25T05:00:03.910Z,17.50
2023-05-25T05:02:30.967Z,26.75
2023-05-25T05:04:57.511Z,26.50
2023-05-25T05:07:24.018Z,23.00
2023-05-25T05:09:50.723Z,23.50
2023-05-25T05:12:17.268Z,25.25
2023-05-25T05:14:43.860Z,19.50
2023-05-25T05:17:10.554Z,21.00
2023-05-25T05:19:37.214Z,26.25
2023-05-25T05:22:03.884Z,23.75
2023-05-25T05:24:30.447Z,23.50
2023-05-25T05:26:59.109Z,22.75
2023-05-25T05:29:27.193Z,26.25
2023-05-25T05:31:54.290Z,28.00
2023-05-25T05:34:23.085Z,21.25
2023-05-25T05:36:57.143Z,24.75
2023-05-25T05:39:24.795Z,24.50
2023-05-25T05:41:51.437Z,27.75
2023-05-25T05:44:18.573Z,20.75
2023-05-25T05:46:45.167Z,28.50
2023-05-25T05:49:11.841Z,23.00
2023-05-25T05:51:38.369Z,30.50
2023-05-25T05:54:05.390Z,29.25
2023-05-25T05:56:31.961Z,35.00
2023-05-25T05:58:58.627Z,33.50
2023-05-25T06:01:25.649Z,33.75
2023-05-25T06:03:54.430Z,39.00
2023-05-25T06:06:21.711Z,23.00
2023-05-25T06:08:48.308Z,23.00
2023-05-25T06:11:15.056Z,23.00
2023-05-25T06:13:41.600Z,24.00
2023-05-25T06:16:08.277Z,42.33
2023-05-25T06:18:34.776Z,34.00
2023-05-25T06:21:01.713Z,37.00
2023-05-25T06:23:28.206Z,38.25
2023-05-25T06:25:55.304Z,30.00
2023-05-25T06:28:22.054Z,40.33
2023-05-25T06:30:48.596Z,23.25
2023-05-25T06:33:15.065Z,35.50
2023-05-25T06:35:42.481Z,31.75
2023-05-25T06:38:12.305Z,32.25
2023-05-25T06:40:39.004Z,24.50
2023-05-25T06:43:05.603Z,25.75
2023-05-25T06:45:32.114Z,22.50
2023-05-25T06:47:58.735Z,21.75
2023-05-25T06:50:25.312Z,19.50
2023-05-25T06:52:51.846Z,19.75
2023-05-25T06:55:18.361Z,18.50
2023-05-25T06:57:45.137Z,23.00
2023-05-25T07:00:12.514Z,21.25
2023-05-25T07:02:39.538Z,23.50
2023-05-25T07:05:06.787Z,26.00
2023-05-25T07:07:33.292Z,29.75
2023-05-25T07:09:59.967Z,24.00
2023-05-25T07:12:26.595Z,24.25
2023-05-25T07:14:53.072Z,27.75
2023-05-25T07:17:19.725Z,26.00
2023-05-25T07:19:46.480Z,23.00
2023-05-25T07:22:12.976Z,31.75
2023-05-25T07:24:39.635Z,21.50
2023-05-25T07:27:07.125Z,22.50
2023-05-25T07:29:33.710Z,26.50
2023-05-25T07:32:00.176Z,25.00
2023-05-25T07:34:27.897Z,21.00
2023-05-25T07:36:54.548Z,22.75
2023-05-25T07:39:21.169Z,20.00
2023-05-25T07:41:47.816Z,25.00
2023-05-25T07:44:14.385Z,31.25
2023-05-25T07:46:41.149Z,23.75
2023-05-25T07:49:12.225Z,24.00
2023-05-25T07:51:39.145Z,22.50
2023-05-25T07:54:05.777Z,20.75
2023-05-25T07:56:32.560Z,24.00
2023-05-25T07:59:00.236Z,26.50
2023-05-25T08:01:27.265Z,22.75
2023-05-25T08:03:53.980Z,29.75
2023-05-25T08:06:21.061Z,21.75
2023-05-25T08:08:47.597Z,28.75
2023-05-25T08:11:15.718Z,27.00
2023-05-25T08:13:42.257Z,23.75
2023-05-25T08:16:09.352Z,26.25
2023-05-25T08:18:36.031Z,21.25
2023-05-25T08:21:02.686Z,29.00
2023-05-25T08:23:29.186Z,24.00
2023-05-25T08:25:55.803Z,33.50
2023-05-25T08:28:22.810Z,27.50
2023-05-25T08:30:49.500Z,29.25
2023-05-25T08:33:16.594Z,29.75
2023-05-25T08:35:43.817Z,32.50
2023-05-25T08:38:10.884Z,27.25
2023-05-25T08:40:41.561Z,26.00
2023-05-25T08:43:08.159Z,27.25
2023-05-25T08:45:37.463Z,28.25
2023-05-25T08:48:12.099Z,28.25
2023-05-25T08:50:38.875Z,26.00
2023-05-25T08:53:08.244Z,29.25
2023-05-25T08:55:37.746Z,28.00
2023-05-25T08:58:10.691Z,27.75
2023-05-25T09:00:41.262Z,24.50
2023-05-25T09:03:13.888Z,21.75
2023-05-25T09:05:40.849Z,27.50
2023-05-25T09:08:08.335Z,31.25
2023-05-25T09:10:35.706Z,29.00
2023-05-25T09:13:16.713Z,31.25
2023-05-25T09:15:46.689Z,34.75
2023-05-25T09:18:13.432Z,27.50
2023-05-25T09:20:40.759Z,21.25
2023-05-25T09:23:09.210Z,23.25
2023-05-25T09:25:36.166Z,27.50
2023-05-25T09:28:10.242Z,26.50
2023-05-25T09:30:50.139Z,28.50
2023-05-25T09:33:19.606Z,26.25
2023-05-25T09:35:47.070Z,22.00
2023-05-25T09:38:15.614Z,33.00
2023-05-25T09:40:43.069Z,27.25
2023-05-25T09:43:09.929Z,27.25
2023-05-25T09:45:38.364Z,22.75
2023-05-25T09:48:06.303Z,28.00
2023-05-25T09:50:33.012Z,23.75
2023-05-25T09:53:00.426Z,25.75
2023-05-25T09:55:36.569Z,30.50
2023-05-25T09:58:11.100Z,30.50
2023-05-25T10:00:37.676Z,31.00
2023-05-25T10:03:04.359Z,30.00
2023-05-25T10:05:31.134Z,24.00
2023-05-25T10:07:57.688Z,33.25
2023-05-25T10:10:24.502Z,28.50
2023-05-25T10:12:53.058Z,27.50
2023-05-25T10:15:21.759Z,26.50
2023-05-25T10:18:02.098Z,36.25
2023-05-25T10:20:31.616Z,26.75
2023-05-25T10:23:01.205Z,30.75
2023-05-25T10:25:36.934Z,31.75
2023-05-25T10:28:07.836Z,34.50
2023-05-25T10:30:37.134Z,30.25
2023-05-25T10:33:03.828Z,29.75
2023-05-25T10:35:32.839Z,30.75
2023-05-25T10:38:05.754Z,31.00
2023-05-25T10:40:33.972Z,33.25
2023-05-25T10:43:01.350Z,29.00
2023-05-25T10:45:28.528Z,26.25
2023-05-25T10:47:55.231Z,30.50
2023-05-25T10:50:29.455Z,28.50
2023-05-25T10:53:03.616Z,32.75
2023-05-25T10:55:41.735Z,34.00
2023-05-25T10:58:09.643Z,29.00
2023-05-25T11:00:36.423Z,27.50
2023-05-25T11:03:03.896Z,28.75
2023-05-25T11:05:31.756Z,27.50
2023-05-25T11:08:07.775Z,29.25
2023-05-25T11:10:50.216Z,32.00
2023-05-25T11:13:32.309Z,32.75
2023-05-25T11:16:18.817Z,26.75
2023-05-25T11:18:46.772Z,34.25
2023-05-25T11:21:21.260Z,30.50
2023-05-25T11:24:07.962Z,32.25
2023-05-25T11:26:34.890Z,28.25
2023-05-25T11:29:02.265Z,29.25
2023-05-25T11:31:37.555Z,27.25
2023-05-25T11:34:06.436Z,29.00
2023-05-25T11:36:35.137Z,28.00
2023-05-25T11:39:06.648Z,32.00
2023-05-25T11:41:38.941Z,26.50
2023-05-25T11:44:08.928Z,32.00
2023-05-25T11:46:35.543Z,29.00
2023-05-25T11:49:02.290Z,27.75
2023-05-25T11:51:29.613Z,28.25
2023-05-25T11:53:56.920Z,28.50
2023-05-25T11:56:34.202Z,32.75
2023-05-25T11:59:02.054Z,27.00
2023-05-25T12:01:32.032Z,28.50
2023-05-25T12:03:59.228Z,26.50
2023-05-25T12:06:37.377Z,22.00
2023-05-25T12:09:10.470Z,26.50
2023-05-25T12:11:40.579Z,28.75
2023-05-25T12:14:07.623Z,27.25
2023-05-25T12:16:35.318Z,22.00
2023-05-25T12:19:02.136Z,26.25
2023-05-25T12:21:28.932Z,28.25
2023-05-25T12:23:55.579Z,24.25
2023-05-25T12:26:22.471Z,26.50
2023-05-25T12:29:01.634Z,24.25
2023-05-25T12:31:32.963Z,24.75
2023-05-25T12:34:13.826Z,29.00
2023-05-25T12:36:45.541Z,27.00
2023-05-25T12:39:13.257Z,29.25
2023-05-25T12:41:51.817Z,25.00
2023-05-25T12:44:23.032Z,30.25
2023-05-25T12:46:50.738Z,25.25
2023-05-25T12:49:26.374Z,22.75
2023-05-25T12:51:52.976Z,24.25
2023-05-25T12:54:37.718Z,24.25
2023-05-25T12:57:06.811Z,24.25
2023-05-25T12:59:34.012Z,23.00
2023-05-25T13:02:00.829Z,25.75
2023-05-25T13:04:27.693Z,22.25
2023-05-25T13:06:54.273Z,23.25
2023-05-25T13:09:26.871Z,19.25
2023-05-25T13:11:54.978Z,22.75
2023-05-25T13:14:22.317Z,26.00
2023-05-25T13:16:49.563Z,22.25
2023-05-25T13:19:16.596Z,19.50
2023-05-25T13:21:43.308Z,19.25
2023-05-25T13:24:10.067Z,23.00
2023-05-25T13:26:37.002Z,19.75
2023-05-25T13:29:03.862Z,20.75
2023-05-25T13:31:30.599Z,20.00
2023-05-25T13:33:58.341Z,21.75
2023-05-25T13:36:25.925Z,24.25
2023-05-25T13:38:52.886Z,19.50
2023-05-25T13:41:19.479Z,21.25
2023-05-25T13:43:46.291Z,20.00
2023-05-25T13:46:25.833Z,22.25
2023-05-25T13:49:00.147Z,20.75
2023-05-25T13:51:26.981Z,24.50
2023-05-25T13:53:54.075Z,22.50
2023-05-25T13:56:20.577Z,22.25
2023-05-25T13:58:47.193Z,20.00
2023-05-25T14:01:14.135Z,21.25
2023-05-25T14:03:40.894Z,18.75
2023-05-25T14:06:07.774Z,20.00
2023-05-25T14:08:34.655Z,22.50
2023-05-25T14:11:01.224Z,19.25
2023-05-25T14:13:27.909Z,21.50
2023-05-25T14:15:54.847Z,21.00
2023-05-25T14:18:22.041Z,20.50
2023-05-25T14:20:48.788Z,20.75
2023-05-25T14:23:18.324Z,19.75
2023-05-25T14:25:45.978Z,20.25
2023-05-25T14:28:12.950Z,19.75
2023-05-25T14:30:39.787Z,22.00
2023-05-25T14:33:06.400Z,18.75
2023-05-25T14:35:33.279Z,21.75
2023-05-25T14:38:00.330Z,19.50
2023-05-25T14:40:26.785Z,20.50
2023-05-25T14:42:55.702Z,17.75
2023-05-25T14:45:22.465Z,19.50
2023-05-25T14:47:50.597Z,23.00
2023-05-25T14:50:18.813Z,21.75
2023-05-25T14:52:46.878Z,25.00
2023-05-25T14:55:13.506Z,20.25
2023-05-25T14:57:40.154Z,18.50
2023-05-25T15:00:07.153Z,19.00
2023-05-25T15:02:33.776Z,20.50
2023-05-25T15:05:00.616Z,21.75
2023-05-25T15:07:27.131Z,19.50
2023-05-25T15:09:53.939Z,20.50
2023-05-25T15:12:20.671Z,21.75
2023-05-25T15:14:47.243Z,20.50
2023-05-25T15:17:13.892Z,22.00
2023-05-25T15:19:40.534Z,43.00
2023-05-25T15:22:07.078Z,17.75
2023-05-25T15:24:33.581Z,22.50
2023-05-25T15:27:00.211Z,26.00
2023-05-25T15:29:26.888Z,37.00
2023-05-25T15:31:53.880Z,39.25
2023-05-25T15:34:20.661Z,25.50
2023-05-25T15:36:47.159Z,22.00
2023-05-25T15:39:14.755Z,34.75
2023-05-25T15:41:41.867Z,43.33
2023-05-25T15:44:12.562Z,22.75
2023-05-25T15:46:40.463Z,21.75
2023-05-25T15:49:11.374Z,21.75
2023-05-25T15:51:39.624Z,17.75
2023-05-25T15:54:06.486Z,14.75
2023-05-25T15:56:33.164Z,14.50
2023-05-25T15:58:59.844Z,20.00
2023-05-25T16:01:26.759Z,25.25
2023-05-25T16:03:53.365Z,19.25
2023-05-25T16:06:20.096Z,17.75
2023-05-25T16:08:46.962Z,23.25
2023-05-25T16:11:13.699Z,21.75
2023-05-25T16:13:40.279Z,23.00
2023-05-25T16:16:07.224Z,12.75
2023-05-25T16:18:33.659Z,21.25
2023-05-25T16:21:00.253Z,20.25
2023-05-25T16:23:26.904Z,18.50
2023-05-25T16:25:53.496Z,18.75
2023-05-25T16:28:20.020Z,18.25
2023-05-25T16:30:46.514Z,20.00
2023-05-25T16:33:13.338Z,15.25
2023-05-25T16:35:40.323Z,18.50
2023-05-25T16:38:06.925Z,18.00
2023-05-25T16:40:33.661Z,19.25
2023-05-25T16:43:00.460Z,16.00
2023-05-25T16:45:26.975Z,16.75
2023-05-25T16:47:53.642Z,17.50
2023-05-25T16:50:20.661Z,15.50
2023-05-25T16:52:47.534Z,18.25
2023-05-25T16:55:16.243Z,18.50
2023-05-25T16:57:43.537Z,17.25
2023-05-25T17:00:10.434Z,25.50
2023-05-25T17:02:37.066Z,17.00
2023-05-25T17:05:06.586Z,20.25
2023-05-25T17:07:33.477Z,19.25
2023-05-25T17:10:00.451Z,22.25
2023-05-25T17:12:27.244Z,19.00
2023-05-25T17:14:53.732Z,17.75
2023-05-25T17:17:20.326Z,26.00
2023-05-25T17:19:46.906Z,19.00
2023-05-25T17:22:13.502Z,29.00
2023-05-25T17:24:40.140Z,21.25
2023-05-25T17:27:06.663Z,18.75
2023-05-25T17:29:33.349Z,25.75
2023-05-25T17:32:00.432Z,23.75
2023-05-25T17:34:27.005Z,20.50
2023-05-25T17:36:53.654Z,21.25
2023-05-25T17:39:20.280Z,23.75
2023-05-25T17:41:47.904Z,21.50
2023-05-25T17:44:14.841Z,22.25
2023-05-25T17:46:42.005Z,22.75
2023-05-25T17:49:08.887Z,21.50
2023-05-25T17:51:35.588Z,25.00
2023-05-25T17:54:02.238Z,36.00
2023-05-25T17:56:28.876Z,22.00
2023-05-25T17:58:55.787Z,27.75
2023-05-25T18:01:22.478Z,32.25
2023-05-25T18:03:50.795Z,36.75
2023-05-25T18:06:17.481Z,29.50
2023-05-25T18:08:44.349Z,30.25
2023-05-25T18:11:10.804Z,29.50
2023-05-25T18:13:37.682Z,28.25
2023-05-25T18:16:04.214Z,32.75
2023-05-25T18:18:31.032Z,29.25
2023-05-25T18:20:57.540Z,26.75
2023-05-25T18:23:24.432Z,27.25
2023-05-25T18:25:50.970Z,37.00
2023-05-25T18:28:17.829Z,25.25
2023-05-25T18:30:44.536Z,35.75
2023-05-25T18:33:11.067Z,21.25
2023-05-25T18:35:38.204Z,27.50
2023-05-25T18:38:05.020Z,30.25
2023-05-25T18:40:31.918Z,31.00
2023-05-25T18:42:58.560Z,31.50
2023-05-25T18:45:26.208Z,33.50
2023-05-25T18:47:52.975Z,36.25
2023-05-25T18:50:20.197Z,40.33
2023-05-25T18:52:50.912Z,35.25
2023-05-25T18:55:18.568Z,32.25
2023-05-25T18:57:45.140Z,39.25
2023-05-25T19:00:12.096Z,39.25
2023-05-25T19:02:38.993Z,32.50
2023-05-25T19:05:05.976Z,33.00
2023-05-25T19:07:37.659Z,32.75
2023-05-25T19:10:08.361Z,8.25
2023-05-25T19:12:34.931Z,34.00
2023-05-25T19:15:04.291Z,33.75
2023-05-25T19:17:31.682Z,36.50
2023-05-25T19:19:58.189Z,35.75
2023-05-25T19:22:25.086Z,39.67
2023-05-25T19:25:00.281Z,41.33
2023-05-25T19:27:27.727Z,43.00
2023-05-25T19:29:54.298Z,33.25
2023-05-25T19:32:20.917Z,33.50
2023-05-25T19:34:50.296Z,29.25
2023-05-25T19:37:17.096Z,30.75
2023-05-25T19:39:44.183Z,32.50
2023-05-25T19:42:10.903Z,30.75
2023-05-25T19:44:38.152Z,31.50
2023-05-25T19:47:04.883Z,31.50
2023-05-25T19:49:31.721Z,26.50
2023-05-25T19:51:58.593Z,30.50
2023-05-25T19:54:25.053Z,28.25
2023-05-25T19:56:52.205Z,21.50
2023-05-25T19:59:18.720Z,29.00
2023-05-25T20:01:45.896Z,27.50
2023-05-25T20:04:14.879Z,28.25
2023-05-25T20:06:41.422Z,28.50
2023-05-25T20:09:11.500Z,27.00
2023-05-25T20:11:38.413Z,26.50
2023-05-25T20:14:06.107Z,30.00
2023-05-25T20:16:32.628Z,34.00
2023-05-25T20:18:59.079Z,31.50
2023-05-25T20:21:25.835Z,31.75
2023-05-25T20:23:52.394Z,29.00
2023-05-25T20:26:18.906Z,28.25
2023-05-25T20:28:45.451Z,31.75
2023-05-25T20:31:12.174Z,33.50
2023-05-25T20:33:38.616Z,31.25
2023-05-25T20:36:05.159Z,35.50
2023-05-25T20:38:31.698Z,30.50
2023-05-25T20:40:58.308Z,30.25
2023-05-25T20:43:24.907Z,36.75
2023-05-25T20:45:51.430Z,32.75
2023-05-25T20:48:18.055Z,37.50
2023-05-25T20:50:44.515Z,35.50
2023-05-25T20:53:11.106Z,33.00
2023-05-25T20:55:37.700Z,33.25
2023-05-25T20:58:04.253Z,33.25
2023-05-25T21:00:30.773Z,31.00
2023-05-25T21:02:57.301Z,33.25
2023-05-25T21:05:24.161Z,34.50
2023-05-25T21:07:50.924Z,37.50
2023-05-25T21:10:17.528Z,34.00
2023-05-25T21:12:44.118Z,32.75
2023-05-25T21:15:10.986Z,36.25
2023-05-25T21:17:37.628Z,35.33
2023-05-25T21:20:04.312Z,33.75
2023-05-25T21:22:31.244Z,37.75
2023-05-25T21:24:57.778Z,30.25
2023-05-25T21:27:24.375Z,34.50
2023-05-25T21:29:50.910Z,31.00
2023-05-25T21:32:17.336Z,27.50
2023-05-25T21:34:43.894Z,33.00
2023-05-25T21:37:10.457Z,32.50
2023-05-25T21:39:36.896Z,33.00
2023-05-25T21:42:03.741Z,30.25
2023-05-25T21:44:30.169Z,35.33
2023-05-25T21:46:56.778Z,34.00
2023-05-25T21:49:23.318Z,32.00
2023-05-25T21:51:49.797Z,36.25
2023-05-25T21:54:16.457Z,29.00
2023-05-25T21:56:42.964Z,31.00
2023-05-25T21:59:09.428Z,33.50
2023-05-25T22:01:36.240Z,33.25
2023-05-25T22:04:02.780Z,37.00
2023-05-25T22:06:29.702Z,29.25
2023-05-25T22:08:56.463Z,29.25
2023-05-25T22:11:23.082Z,32.75
2023-05-25T22:13:49.631Z,38.25
2023-05-25T22:16:16.167Z,34.75
2023-05-25T22:18:42.970Z,29.25
2023-05-25T22:21:09.453Z,33.00
2023-05-25T22:23:35.990Z,36.75
2023-05-25T22:26:02.709Z,32.00
2023-05-25T22:28:31.720Z,29.00
2023-05-25T22:30:58.227Z,33.00
2023-05-25T22:33:24.664Z,34.50
2023-05-25T22:35:51.204Z,33.50
2023-05-25T22:38:17.650Z,35.25
2023-05-25T22:40:47.456Z,33.00
2023-05-25T22:43:14.698Z,33.50
2023-05-25T22:45:41.400Z,34.50
2023-05-25T22:48:08.463Z,39.50
2023-05-25T22:50:35.029Z,30.75
2023-05-25T22:53:01.608Z,37.00
2023-05-25T22:55:28.053Z,29.75
2023-05-25T22:57:54.482Z,29.75
2023-05-25T23:00:21.022Z,31.50
2023-05-25T23:02:47.842Z,30.25
2023-05-25T23:05:14.466Z,35.25
2023-05-25T23:07:41.493Z,34.75
2023-05-25T23:10:08.332Z,33.75
2023-05-25T23:12:34.805Z,29.75
2023-05-25T23:15:03.011Z,33.75
2023-05-25T23:17:29.574Z,32.00
2023-05-25T23:19:56.039Z,32.00
2023-05-25T23:22:22.512Z,36.00
2023-05-25T23:24:48.924Z,38.33
2023-05-25T23:27:15.561Z,33.75
2023-05-25T23:29:42.006Z,27.50
2023-05-25T23:32:08.699Z,28.67
2023-05-25T23:34:35.252Z,32.75
2023-05-25T23:37:03.326Z,33.75
2023-05-25T23:40:09.059Z,32.67
2023-05-25T23:42:39.422Z,35.67
2023-05-25T23:45:08.182Z,28.25
2023-05-25T23:47:34.991Z,33.00
2023-05-25T23:50:01.594Z,31.50
2023-05-25T23:52:28.145Z,31.67
2023-05-25T23:54:54.601Z,28.33
2023-05-25T23:57:21.101Z,32.50
2023-05-25T23:59:47.615Z,41.00
